sensor_id;sensor_type;location;lat;lon;timestamp;P1;durP1;ratioP1;P2;durP2;ratioP2
38130;SDS011;23947;51.894;4.622;2022-10-16T00:01:17;3.58;;;0.40;;
38130;SDS011;23947;51.894;4.622;2022-10-16T00:03:45;5.38;;;0.50;;
38130;SDS011;23947;51.894;4.622;2022-10-16T00:06:12;6.03;;;0.80;;
38130;SDS011;23947;51.894;4.622;2022-10-16T00:08:39;6.47;;;0.50;;
38130;SDS011;23947;51.894;4.622;2022-10-16T00:11:13;4.50;;;0.50;;
38130;SDS011;23947;51.894;4.622;2022-10-16T00:13:41;12.30;;;0.80;;
38130;SDS011;23947;51.894;4.622;2022-10-16T00:16:08;5.35;;;0.77;;
38130;SDS011;23947;51.894;4.622;2022-10-16T00:18:35;3.53;;;0.60;;
38130;SDS011;23947;51.894;4.622;2022-10-16T00:21:05;8.82;;;0.70;;
38130;SDS011;23947;51.894;4.622;2022-10-16T00:23:33;5.45;;;0.75;;
38130;SDS011;23947;51.894;4.622;2022-10-16T00:26:03;5.07;;;0.50;;
38130;SDS011;23947;51.894;4.622;2022-10-16T00:28:31;9.10;;;0.60;;
38130;SDS011;23947;51.894;4.622;2022-10-16T00:30:56;4.68;;;0.50;;
38130;SDS011;23947;51.894;4.622;2022-10-16T00:33:22;6.07;;;0.70;;
38130;SDS011;23947;51.894;4.622;2022-10-16T00:35:48;5.03;;;0.70;;
38130;SDS011;23947;51.894;4.622;2022-10-16T00:38:15;5.43;;;0.70;;
38130;SDS011;23947;51.894;4.622;2022-10-16T00:40:41;5.90;;;0.60;;
38130;SDS011;23947;51.894;4.622;2022-10-16T00:43:41;4.97;;;0.77;;
38130;SDS011;23947;51.894;4.622;2022-10-16T00:51:26;5.30;;;0.50;;
38130;SDS011;23947;51.894;4.622;2022-10-16T00:53:56;2.78;;;0.73;;
38130;SDS011;23947;51.894;4.622;2022-10-16T00:56:22;5.15;;;0.70;;
38130;SDS011;23947;51.894;4.622;2022-10-16T00:58:48;4.90;;;0.65;;
38130;SDS011;23947;51.894;4.622;2022-10-16T01:01:14;3.03;;;0.60;;
38130;SDS011;23947;51.894;4.622;2022-10-16T01:03:39;7.03;;;0.82;;
38130;SDS011;23947;51.894;4.622;2022-10-16T01:08:44;4.03;;;0.60;;
38130;SDS011;23947;51.894;4.622;2022-10-16T01:11:38;4.43;;;0.60;;
38130;SDS011;23947;51.894;4.622;2022-10-16T01:14:15;4.93;;;0.60;;
38130;SDS011;23947;51.894;4.622;2022-10-16T01:16:57;4.97;;;0.70;;
38130;SDS011;23947;51.894;4.622;2022-10-16T01:22:24;3.72;;;0.50;;
38130;SDS011;23947;51.894;4.622;2022-10-16T01:24:55;5.80;;;0.68;;
38130;SDS011;23947;51.894;4.622;2022-10-16T01:27:30;3.38;;;0.60;;
38130;SDS011;23947;51.894;4.622;2022-10-16T01:32:57;5.55;;;0.73;;
38130;SDS011;23947;51.894;4.622;2022-10-16T01:35:47;7.78;;;0.70;;
38130;SDS011;23947;51.894;4.622;2022-10-16T01:38:25;3.92;;;0.80;;
38130;SDS011;23947;51.894;4.622;2022-10-16T01:41:00;3.03;;;0.70;;
38130;SDS011;23947;51.894;4.622;2022-10-16T01:43:32;4.38;;;0.95;;
38130;SDS011;23947;51.894;4.622;2022-10-16T01:46:01;5.35;;;1.02;;
38130;SDS011;23947;51.894;4.622;2022-10-16T01:48:27;6.10;;;1.02;;
38130;SDS011;23947;51.894;4.622;2022-10-16T01:51:04;4.65;;;0.80;;
38130;SDS011;23947;51.894;4.622;2022-10-16T01:53:33;3.15;;;0.80;;
38130;SDS011;23947;51.894;4.622;2022-10-16T01:55:59;5.78;;;0.93;;
38130;SDS011;23947;51.894;4.622;2022-10-16T01:58:28;8.30;;;1.08;;
38130;SDS011;23947;51.894;4.622;2022-10-16T02:00:59;9.18;;;0.88;;
38130;SDS011;23947;51.894;4.622;2022-10-16T02:03:26;4.80;;;1.15;;
38130;SDS011;23947;51.894;4.622;2022-10-16T02:05:55;9.65;;;1.52;;
38130;SDS011;23947;51.894;4.622;2022-10-16T02:08:22;6.03;;;1.08;;
38130;SDS011;23947;51.894;4.622;2022-10-16T02:10:51;5.07;;;1.10;;
38130;SDS011;23947;51.894;4.622;2022-10-16T02:13:17;6.43;;;0.80;;
38130;SDS011;23947;51.894;4.622;2022-10-16T02:15:51;5.55;;;1.02;;
38130;SDS011;23947;51.894;4.622;2022-10-16T02:18:17;3.88;;;1.00;;
38130;SDS011;23947;51.894;4.622;2022-10-16T02:21:46;4.50;;;0.90;;
38130;SDS011;23947;51.894;4.622;2022-10-16T02:23:50;6.25;;;0.70;;
38130;SDS011;23947;51.894;4.622;2022-10-16T02:26:27;4.75;;;0.80;;
38130;SDS011;23947;51.894;4.622;2022-10-16T02:29:02;7.88;;;0.70;;
38130;SDS011;23947;51.894;4.622;2022-10-16T02:31:33;3.70;;;0.60;;
38130;SDS011;23947;51.894;4.622;2022-10-16T02:34:03;6.20;;;0.90;;
38130;SDS011;23947;51.894;4.622;2022-10-16T02:36:31;5.32;;;0.82;;
38130;SDS011;23947;51.894;4.622;2022-10-16T02:38:59;7.25;;;0.70;;
38130;SDS011;23947;51.894;4.622;2022-10-16T02:41:26;2.90;;;0.57;;
38130;SDS011;23947;51.894;4.622;2022-10-16T02:43:52;4.25;;;0.80;;
38130;SDS011;23947;51.894;4.622;2022-10-16T02:46:18;4.28;;;0.60;;
38130;SDS011;23947;51.894;4.622;2022-10-16T02:48:44;4.45;;;0.65;;
38130;SDS011;23947;51.894;4.622;2022-10-16T02:51:10;4.40;;;0.55;;
38130;SDS011;23947;51.894;4.622;2022-10-16T02:53:35;4.13;;;0.60;;
38130;SDS011;23947;51.894;4.622;2022-10-16T02:56:01;3.40;;;0.50;;
38130;SDS011;23947;51.894;4.622;2022-10-16T02:58:26;4.15;;;0.75;;
38130;SDS011;23947;51.894;4.622;2022-10-16T03:00:52;7.25;;;1.13;;
38130;SDS011;23947;51.894;4.622;2022-10-16T03:03:18;3.13;;;0.57;;
38130;SDS011;23947;51.894;4.622;2022-10-16T03:05:43;3.85;;;0.68;;
38130;SDS011;23947;51.894;4.622;2022-10-16T03:08:11;5.65;;;0.63;;
38130;SDS011;23947;51.894;4.622;2022-10-16T03:10:37;2.65;;;0.47;;
38130;SDS011;23947;51.894;4.622;2022-10-16T03:13:02;6.15;;;0.75;;
38130;SDS011;23947;51.894;4.622;2022-10-16T03:15:28;8.00;;;0.60;;
38130;SDS011;23947;51.894;4.622;2022-10-16T03:17:54;2.42;;;0.50;;
38130;SDS011;23947;51.894;4.622;2022-10-16T03:20:22;4.28;;;0.47;;
38130;SDS011;23947;51.894;4.622;2022-10-16T03:22:47;2.63;;;0.50;;
38130;SDS011;23947;51.894;4.622;2022-10-16T03:25:13;3.80;;;0.60;;
38130;SDS011;23947;51.894;4.622;2022-10-16T03:27:39;3.60;;;0.40;;
38130;SDS011;23947;51.894;4.622;2022-10-16T03:30:04;5.50;;;0.60;;
38130;SDS011;23947;51.894;4.622;2022-10-16T03:32:30;6.53;;;0.60;;
38130;SDS011;23947;51.894;4.622;2022-10-16T03:34:56;4.18;;;0.60;;
38130;SDS011;23947;51.894;4.622;2022-10-16T03:37:22;5.32;;;0.70;;
38130;SDS011;23947;51.894;4.622;2022-10-16T03:39:47;2.70;;;0.73;;
38130;SDS011;23947;51.894;4.622;2022-10-16T03:42:13;4.18;;;0.75;;
38130;SDS011;23947;51.894;4.622;2022-10-16T03:44:38;1.85;;;0.50;;
38130;SDS011;23947;51.894;4.622;2022-10-16T03:47:04;7.07;;;0.70;;
38130;SDS011;23947;51.894;4.622;2022-10-16T03:49:30;2.60;;;0.60;;
38130;SDS011;23947;51.894;4.622;2022-10-16T03:51:55;3.65;;;0.50;;
38130;SDS011;23947;51.894;4.622;2022-10-16T03:54:21;5.95;;;0.68;;
38130;SDS011;23947;51.894;4.622;2022-10-16T03:56:47;4.15;;;0.73;;
38130;SDS011;23947;51.894;4.622;2022-10-16T03:59:13;5.18;;;0.70;;
38130;SDS011;23947;51.894;4.622;2022-10-16T04:01:38;3.92;;;0.60;;
38130;SDS011;23947;51.894;4.622;2022-10-16T04:04:04;5.85;;;0.77;;
38130;SDS011;23947;51.894;4.622;2022-10-16T04:06:29;4.35;;;0.50;;
38130;SDS011;23947;51.894;4.622;2022-10-16T04:08:55;7.80;;;0.70;;
38130;SDS011;23947;51.894;4.622;2022-10-16T04:11:21;5.07;;;0.57;;
38130;SDS011;23947;51.894;4.622;2022-10-16T04:13:46;7.07;;;0.70;;
38130;SDS011;23947;51.894;4.622;2022-10-16T04:16:12;5.93;;;0.70;;
38130;SDS011;23947;51.894;4.622;2022-10-16T04:18:38;10.27;;;0.60;;
38130;SDS011;23947;51.894;4.622;2022-10-16T04:21:04;8.05;;;0.93;;
38130;SDS011;23947;51.894;4.622;2022-10-16T04:23:31;5.38;;;1.05;;
38130;SDS011;23947;51.894;4.622;2022-10-16T04:25:57;6.78;;;0.60;;
38130;SDS011;23947;51.894;4.622;2022-10-16T04:28:23;4.70;;;0.80;;
38130;SDS011;23947;51.894;4.622;2022-10-16T04:30:48;5.10;;;0.90;;
38130;SDS011;23947;51.894;4.622;2022-10-16T04:33:14;6.95;;;0.68;;
38130;SDS011;23947;51.894;4.622;2022-10-16T04:35:39;4.88;;;0.45;;
38130;SDS011;23947;51.894;4.622;2022-10-16T04:38:05;4.60;;;0.70;;
38130;SDS011;23947;51.894;4.622;2022-10-16T04:40:31;6.63;;;0.70;;
38130;SDS011;23947;51.894;4.622;2022-10-16T04:42:58;4.97;;;0.90;;
38130;SDS011;23947;51.894;4.622;2022-10-16T04:45:24;3.58;;;0.70;;
38130;SDS011;23947;51.894;4.622;2022-10-16T04:47:50;2.67;;;0.70;;
38130;SDS011;23947;51.894;4.622;2022-10-16T04:50:15;6.80;;;0.75;;
38130;SDS011;23947;51.894;4.622;2022-10-16T04:52:41;5.95;;;0.75;;
38130;SDS011;23947;51.894;4.622;2022-10-16T04:55:07;6.55;;;1.05;;
38130;SDS011;23947;51.894;4.622;2022-10-16T04:57:33;3.28;;;0.80;;
38130;SDS011;23947;51.894;4.622;2022-10-16T04:59:58;4.38;;;0.65;;
38130;SDS011;23947;51.894;4.622;2022-10-16T05:02:24;4.32;;;0.82;;
38130;SDS011;23947;51.894;4.622;2022-10-16T05:04:50;4.55;;;0.90;;
38130;SDS011;23947;51.894;4.622;2022-10-16T05:07:16;10.75;;;0.93;;
38130;SDS011;23947;51.894;4.622;2022-10-16T05:09:42;4.70;;;0.65;;
38130;SDS011;23947;51.894;4.622;2022-10-16T05:12:07;11.32;;;0.93;;
38130;SDS011;23947;51.894;4.622;2022-10-16T05:14:33;6.80;;;0.98;;
38130;SDS011;23947;51.894;4.622;2022-10-16T05:16:59;9.52;;;0.70;;
38130;SDS011;23947;51.894;4.622;2022-10-16T05:19:25;4.25;;;0.77;;
38130;SDS011;23947;51.894;4.622;2022-10-16T05:21:51;6.20;;;0.80;;
38130;SDS011;23947;51.894;4.622;2022-10-16T05:24:16;10.93;;;1.40;;
38130;SDS011;23947;51.894;4.622;2022-10-16T05:26:42;9.00;;;7.10;;
38130;SDS011;23947;51.894;4.622;2022-10-16T05:29:08;17.00;;;9.52;;
38130;SDS011;23947;51.894;4.622;2022-10-16T05:31:34;15.93;;;7.97;;
38130;SDS011;23947;51.894;4.622;2022-10-16T05:34:00;14.70;;;6.90;;
38130;SDS011;23947;51.894;4.622;2022-10-16T05:36:26;6.97;;;1.30;;
38130;SDS011;23947;51.894;4.622;2022-10-16T05:38:52;10.65;;;3.63;;
38130;SDS011;23947;51.894;4.622;2022-10-16T05:41:18;6.80;;;1.25;;
38130;SDS011;23947;51.894;4.622;2022-10-16T05:43:48;10.38;;;4.10;;
38130;SDS011;23947;51.894;4.622;2022-10-16T05:46:14;17.77;;;9.05;;
38130;SDS011;23947;51.894;4.622;2022-10-16T05:48:40;9.10;;;3.75;;
38130;SDS011;23947;51.894;4.622;2022-10-16T05:51:06;10.68;;;4.13;;
38130;SDS011;23947;51.894;4.622;2022-10-16T05:53:35;14.18;;;5.18;;
38130;SDS011;23947;51.894;4.622;2022-10-16T05:56:02;7.20;;;0.90;;
38130;SDS011;23947;51.894;4.622;2022-10-16T05:58:29;6.50;;;0.80;;
38130;SDS011;23947;51.894;4.622;2022-10-16T06:01:01;13.50;;;1.80;;
38130;SDS011;23947;51.894;4.622;2022-10-16T06:03:28;8.60;;;0.80;;
38130;SDS011;23947;51.894;4.622;2022-10-16T06:05:54;7.93;;;0.90;;
38130;SDS011;23947;51.894;4.622;2022-10-16T06:08:21;7.60;;;1.10;;
38130;SDS011;23947;51.894;4.622;2022-10-16T06:10:47;5.28;;;0.88;;
38130;SDS011;23947;51.894;4.622;2022-10-16T06:13:14;8.13;;;0.90;;
38130;SDS011;23947;51.894;4.622;2022-10-16T06:15:41;7.32;;;1.10;;
38130;SDS011;23947;51.894;4.622;2022-10-16T06:18:07;5.72;;;0.70;;
38130;SDS011;23947;51.894;4.622;2022-10-16T06:20:34;4.93;;;0.70;;
38130;SDS011;23947;51.894;4.622;2022-10-16T06:23:00;5.85;;;0.50;;
38130;SDS011;23947;51.894;4.622;2022-10-16T06:25:25;3.25;;;0.50;;
38130;SDS011;23947;51.894;4.622;2022-10-16T06:27:51;5.35;;;0.60;;
38130;SDS011;23947;51.894;4.622;2022-10-16T06:30:16;4.32;;;0.50;;
38130;SDS011;23947;51.894;4.622;2022-10-16T06:32:42;8.98;;;0.60;;
38130;SDS011;23947;51.894;4.622;2022-10-16T06:35:08;6.38;;;0.63;;
38130;SDS011;23947;51.894;4.622;2022-10-16T06:37:33;9.68;;;1.30;;
38130;SDS011;23947;51.894;4.622;2022-10-16T06:39:59;7.00;;;0.77;;
38130;SDS011;23947;51.894;4.622;2022-10-16T06:42:25;6.28;;;0.80;;
38130;SDS011;23947;51.894;4.622;2022-10-16T06:44:51;10.77;;;2.33;;
38130;SDS011;23947;51.894;4.622;2022-10-16T06:47:16;9.18;;;1.90;;
38130;SDS011;23947;51.894;4.622;2022-10-16T06:49:42;21.40;;;7.68;;
38130;SDS011;23947;51.894;4.622;2022-10-16T06:52:08;9.02;;;1.98;;
38130;SDS011;23947;51.894;4.622;2022-10-16T06:54:33;7.93;;;1.77;;
38130;SDS011;23947;51.894;4.622;2022-10-16T06:56:59;20.52;;;9.35;;
38130;SDS011;23947;51.894;4.622;2022-10-16T06:59:26;35.40;;;18.33;;
38130;SDS011;23947;51.894;4.622;2022-10-16T07:01:52;32.58;;;18.73;;
38130;SDS011;23947;51.894;4.622;2022-10-16T07:04:17;23.17;;;9.27;;
38130;SDS011;23947;51.894;4.622;2022-10-16T07:06:43;33.55;;;17.02;;
38130;SDS011;23947;51.894;4.622;2022-10-16T07:09:09;64.10;;;32.45;;
38130;SDS011;23947;51.894;4.622;2022-10-16T07:11:38;15.68;;;4.97;;
38130;SDS011;23947;51.894;4.622;2022-10-16T07:14:05;16.80;;;4.10;;
38130;SDS011;23947;51.894;4.622;2022-10-16T07:16:40;76.03;;;38.58;;
38130;SDS011;23947;51.894;4.622;2022-10-16T07:19:05;13.60;;;5.50;;
38130;SDS011;23947;51.894;4.622;2022-10-16T07:21:32;10.98;;;4.00;;
38130;SDS011;23947;51.894;4.622;2022-10-16T07:24:02;15.50;;;4.38;;
38130;SDS011;23947;51.894;4.622;2022-10-16T07:26:29;7.78;;;2.42;;
38130;SDS011;23947;51.894;4.622;2022-10-16T07:28:57;13.70;;;1.40;;
38130;SDS011;23947;51.894;4.622;2022-10-16T07:31:23;11.85;;;5.25;;
38130;SDS011;23947;51.894;4.622;2022-10-16T07:33:49;15.55;;;5.63;;
38130;SDS011;23947;51.894;4.622;2022-10-16T07:36:17;9.10;;;1.88;;
38130;SDS011;23947;51.894;4.622;2022-10-16T07:38:43;4.72;;;0.90;;
38130;SDS011;23947;51.894;4.622;2022-10-16T07:41:13;7.75;;;1.10;;
38130;SDS011;23947;51.894;4.622;2022-10-16T07:43:44;11.60;;;1.00;;
38130;SDS011;23947;51.894;4.622;2022-10-16T07:46:11;9.20;;;1.00;;
38130;SDS011;23947;51.894;4.622;2022-10-16T07:48:37;6.35;;;1.10;;
38130;SDS011;23947;51.894;4.622;2022-10-16T07:51:03;10.00;;;0.70;;
38130;SDS011;23947;51.894;4.622;2022-10-16T07:53:30;10.07;;;1.38;;
38130;SDS011;23947;51.894;4.622;2022-10-16T07:56:15;11.45;;;0.88;;
38130;SDS011;23947;51.894;4.622;2022-10-16T07:58:41;11.85;;;0.90;;
38130;SDS011;23947;51.894;4.622;2022-10-16T08:01:08;6.72;;;0.90;;
38130;SDS011;23947;51.894;4.622;2022-10-16T08:03:35;10.63;;;0.90;;
38130;SDS011;23947;51.894;4.622;2022-10-16T08:06:01;8.45;;;1.02;;
38130;SDS011;23947;51.894;4.622;2022-10-16T08:08:27;11.52;;;0.63;;
38130;SDS011;23947;51.894;4.622;2022-10-16T08:10:53;8.57;;;0.70;;
38130;SDS011;23947;51.894;4.622;2022-10-16T08:13:19;6.50;;;0.55;;
38130;SDS011;23947;51.894;4.622;2022-10-16T08:15:45;9.70;;;0.90;;
38130;SDS011;23947;51.894;4.622;2022-10-16T08:18:12;10.07;;;0.85;;
38130;SDS011;23947;51.894;4.622;2022-10-16T08:20:39;12.73;;;1.13;;
38130;SDS011;23947;51.894;4.622;2022-10-16T08:23:05;17.25;;;3.92;;
38130;SDS011;23947;51.894;4.622;2022-10-16T08:25:33;17.63;;;4.25;;
38130;SDS011;23947;51.894;4.622;2022-10-16T08:28:02;15.60;;;5.20;;
38130;SDS011;23947;51.894;4.622;2022-10-16T08:30:29;17.10;;;2.42;;
38130;SDS011;23947;51.894;4.622;2022-10-16T08:32:55;19.40;;;1.83;;
38130;SDS011;23947;51.894;4.622;2022-10-16T08:35:20;13.30;;;1.85;;
38130;SDS011;23947;51.894;4.622;2022-10-16T08:37:46;9.52;;;1.90;;
38130;SDS011;23947;51.894;4.622;2022-10-16T08:40:33;12.95;;;2.22;;
38130;SDS011;23947;51.894;4.622;2022-10-16T08:43:11;13.30;;;0.80;;
38130;SDS011;23947;51.894;4.622;2022-10-16T08:50:39;8.88;;;0.82;;
38130;SDS011;23947;51.894;4.622;2022-10-16T08:53:05;9.68;;;0.90;;
38130;SDS011;23947;51.894;4.622;2022-10-16T08:55:43;10.75;;;1.60;;
38130;SDS011;23947;51.894;4.622;2022-10-16T08:58:18;8.95;;;1.10;;
38130;SDS011;23947;51.894;4.622;2022-10-16T09:06:07;8.77;;;1.25;;
38130;SDS011;23947;51.894;4.622;2022-10-16T09:09:05;9.77;;;1.20;;
38130;SDS011;23947;51.894;4.622;2022-10-16T09:17:30;11.95;;;0.80;;
38130;SDS011;23947;51.894;4.622;2022-10-16T09:23:15;9.93;;;0.93;;
38130;SDS011;23947;51.894;4.622;2022-10-16T09:25:48;13.32;;;1.08;;
38130;SDS011;23947;51.894;4.622;2022-10-16T09:28:15;13.18;;;1.05;;
38130;SDS011;23947;51.894;4.622;2022-10-16T09:30:42;9.18;;;0.77;;
38130;SDS011;23947;51.894;4.622;2022-10-16T09:33:09;15.93;;;1.25;;
38130;SDS011;23947;51.894;4.622;2022-10-16T09:35:40;8.65;;;0.90;;
38130;SDS011;23947;51.894;4.622;2022-10-16T09:38:20;17.60;;;1.60;;
38130;SDS011;23947;51.894;4.622;2022-10-16T09:41:24;12.57;;;1.27;;
38130;SDS011;23947;51.894;4.622;2022-10-16T09:43:57;9.10;;;0.82;;
38130;SDS011;23947;51.894;4.622;2022-10-16T09:48:53;13.98;;;0.85;;
38130;SDS011;23947;51.894;4.622;2022-10-16T09:53:46;15.50;;;1.08;;
38130;SDS011;23947;51.894;4.622;2022-10-16T09:56:21;11.65;;;0.93;;
38130;SDS011;23947;51.894;4.622;2022-10-16T09:58:56;16.15;;;1.40;;
38130;SDS011;23947;51.894;4.622;2022-10-16T10:03:36;13.10;;;1.00;;
38130;SDS011;23947;51.894;4.622;2022-10-16T10:06:06;12.43;;;1.40;;
38130;SDS011;23947;51.894;4.622;2022-10-16T10:09:15;14.23;;;1.23;;
38130;SDS011;23947;51.894;4.622;2022-10-16T10:11:50;8.65;;;0.80;;
38130;SDS011;23947;51.894;4.622;2022-10-16T10:19:41;12.18;;;1.05;;
38130;SDS011;23947;51.894;4.622;2022-10-16T10:30:25;18.45;;;1.40;;
38130;SDS011;23947;51.894;4.622;2022-10-16T10:44:35;14.02;;;1.52;;
38130;SDS011;23947;51.894;4.622;2022-10-16T10:50:09;16.90;;;1.55;;
38130;SDS011;23947;51.894;4.622;2022-10-16T10:55:45;15.35;;;0.95;;
38130;SDS011;23947;51.894;4.622;2022-10-16T11:01:14;15.23;;;1.10;;
38130;SDS011;23947;51.894;4.622;2022-10-16T11:06:59;10.48;;;0.88;;
38130;SDS011;23947;51.894;4.622;2022-10-16T11:09:40;7.97;;;0.85;;
38130;SDS011;23947;51.894;4.622;2022-10-16T11:12:13;13.75;;;0.82;;
38130;SDS011;23947;51.894;4.622;2022-10-16T11:17:19;13.52;;;1.02;;
38130;SDS011;23947;51.894;4.622;2022-10-16T11:19:56;9.35;;;1.00;;
38130;SDS011;23947;51.894;4.622;2022-10-16T11:22:35;13.20;;;0.90;;
38130;SDS011;23947;51.894;4.622;2022-10-16T11:25:13;12.38;;;1.08;;
38130;SDS011;23947;51.894;4.622;2022-10-16T11:28:03;12.55;;;1.08;;
38130;SDS011;23947;51.894;4.622;2022-10-16T11:33:31;13.18;;;1.25;;
38130;SDS011;23947;51.894;4.622;2022-10-16T11:41:53;12.88;;;1.10;;
38130;SDS011;23947;51.894;4.622;2022-10-16T11:50:02;16.80;;;1.15;;
38130;SDS011;23947;51.894;4.622;2022-10-16T11:55:35;12.98;;;1.08;;
38130;SDS011;23947;51.894;4.622;2022-10-16T11:58:05;10.85;;;1.00;;
38130;SDS011;23947;51.894;4.622;2022-10-16T12:03:17;13.55;;;1.35;;
38130;SDS011;23947;51.894;4.622;2022-10-16T12:08:58;13.30;;;0.85;;
38130;SDS011;23947;51.894;4.622;2022-10-16T12:14:16;12.82;;;0.88;;
38130;SDS011;23947;51.894;4.622;2022-10-16T12:19:17;11.73;;;0.90;;
38130;SDS011;23947;51.894;4.622;2022-10-16T12:21:44;10.98;;;0.90;;
38130;SDS011;23947;51.894;4.622;2022-10-16T12:29:54;10.68;;;0.95;;
38130;SDS011;23947;51.894;4.622;2022-10-16T12:32:26;13.18;;;1.00;;
38130;SDS011;23947;51.894;4.622;2022-10-16T12:34:59;13.60;;;1.20;;
38130;SDS011;23947;51.894;4.622;2022-10-16T12:37:35;9.40;;;1.27;;
38130;SDS011;23947;51.894;4.622;2022-10-16T12:40:22;10.82;;;0.90;;
38130;SDS011;23947;51.894;4.622;2022-10-16T12:42:54;14.88;;;1.50;;
38130;SDS011;23947;51.894;4.622;2022-10-16T12:45:29;12.05;;;0.80;;
38130;SDS011;23947;51.894;4.622;2022-10-16T12:47:57;13.07;;;1.10;;
38130;SDS011;23947;51.894;4.622;2022-10-16T12:50:24;8.80;;;0.93;;
38130;SDS011;23947;51.894;4.622;2022-10-16T12:52:52;12.82;;;1.10;;
38130;SDS011;23947;51.894;4.622;2022-10-16T12:55:18;9.48;;;0.95;;
38130;SDS011;23947;51.894;4.622;2022-10-16T13:20:04;11.25;;;1.00;;
38130;SDS011;23947;51.894;4.622;2022-10-16T13:23:11;9.23;;;0.80;;
38130;SDS011;23947;51.894;4.622;2022-10-16T13:25:45;12.15;;;1.10;;
38130;SDS011;23947;51.894;4.622;2022-10-16T13:28:34;14.50;;;0.98;;
38130;SDS011;23947;51.894;4.622;2022-10-16T13:31:03;15.35;;;1.05;;
38130;SDS011;23947;51.894;4.622;2022-10-16T13:36:17;13.13;;;1.08;;
38130;SDS011;23947;51.894;4.622;2022-10-16T13:38:48;14.10;;;1.20;;
38130;SDS011;23947;51.894;4.622;2022-10-16T13:41:38;13.38;;;0.82;;
38130;SDS011;23947;51.894;4.622;2022-10-16T13:44:04;14.48;;;1.40;;
38130;SDS011;23947;51.894;4.622;2022-10-16T13:46:35;15.07;;;0.90;;
38130;SDS011;23947;51.894;4.622;2022-10-16T13:49:05;16.77;;;1.20;;
38130;SDS011;23947;51.894;4.622;2022-10-16T13:51:36;15.18;;;1.10;;
38130;SDS011;23947;51.894;4.622;2022-10-16T13:54:02;11.70;;;0.93;;
38130;SDS011;23947;51.894;4.622;2022-10-16T13:56:29;17.98;;;1.27;;
38130;SDS011;23947;51.894;4.622;2022-10-16T13:58:59;11.97;;;1.17;;
38130;SDS011;23947;51.894;4.622;2022-10-16T14:01:28;14.77;;;1.17;;
38130;SDS011;23947;51.894;4.622;2022-10-16T14:04:05;13.73;;;0.98;;
38130;SDS011;23947;51.894;4.622;2022-10-16T14:06:34;12.55;;;1.30;;
38130;SDS011;23947;51.894;4.622;2022-10-16T14:09:05;14.32;;;1.20;;
38130;SDS011;23947;51.894;4.622;2022-10-16T14:14:25;16.05;;;1.13;;
38130;SDS011;23947;51.894;4.622;2022-10-16T14:16:57;14.35;;;1.30;;
38130;SDS011;23947;51.894;4.622;2022-10-16T14:19:26;11.85;;;1.20;;
38130;SDS011;23947;51.894;4.622;2022-10-16T14:21:54;11.25;;;1.55;;
38130;SDS011;23947;51.894;4.622;2022-10-16T14:26:56;15.07;;;1.08;;
38130;SDS011;23947;51.894;4.622;2022-10-16T14:29:23;17.13;;;1.35;;
38130;SDS011;23947;51.894;4.622;2022-10-16T14:32:00;16.85;;;0.95;;
38130;SDS011;23947;51.894;4.622;2022-10-16T14:36:58;14.60;;;1.30;;
38130;SDS011;23947;51.894;4.622;2022-10-16T14:39:29;13.45;;;1.45;;
38130;SDS011;23947;51.894;4.622;2022-10-16T14:41:55;22.95;;;2.03;;
38130;SDS011;23947;51.894;4.622;2022-10-16T14:44:24;17.17;;;1.17;;
38130;SDS011;23947;51.894;4.622;2022-10-16T14:46:57;18.27;;;0.90;;
38130;SDS011;23947;51.894;4.622;2022-10-16T14:49:31;18.95;;;1.33;;
38130;SDS011;23947;51.894;4.622;2022-10-16T14:51:57;17.15;;;1.20;;
38130;SDS011;23947;51.894;4.622;2022-10-16T14:54:23;15.52;;;1.30;;
38130;SDS011;23947;51.894;4.622;2022-10-16T14:56:55;13.98;;;1.33;;
38130;SDS011;23947;51.894;4.622;2022-10-16T14:59:29;10.38;;;1.13;;
38130;SDS011;23947;51.894;4.622;2022-10-16T15:02:36;16.63;;;1.40;;
38130;SDS011;23947;51.894;4.622;2022-10-16T15:04:57;10.52;;;0.98;;
38130;SDS011;23947;51.894;4.622;2022-10-16T15:07:23;18.58;;;1.70;;
38130;SDS011;23947;51.894;4.622;2022-10-16T15:09:49;16.27;;;1.38;;
38130;SDS011;23947;51.894;4.622;2022-10-16T15:12:15;14.80;;;1.20;;
38130;SDS011;23947;51.894;4.622;2022-10-16T15:14:42;15.93;;;1.00;;
38130;SDS011;23947;51.894;4.622;2022-10-16T15:17:09;12.75;;;1.38;;
38130;SDS011;23947;51.894;4.622;2022-10-16T15:19:36;11.73;;;1.23;;
38130;SDS011;23947;51.894;4.622;2022-10-16T15:22:01;16.05;;;2.05;;
38130;SDS011;23947;51.894;4.622;2022-10-16T15:24:27;16.20;;;1.45;;
38130;SDS011;23947;51.894;4.622;2022-10-16T15:26:53;14.05;;;1.50;;
38130;SDS011;23947;51.894;4.622;2022-10-16T15:29:18;13.20;;;1.00;;
38130;SDS011;23947;51.894;4.622;2022-10-16T15:31:44;13.35;;;1.80;;
38130;SDS011;23947;51.894;4.622;2022-10-16T15:34:12;14.73;;;2.55;;
38130;SDS011;23947;51.894;4.622;2022-10-16T15:36:38;26.15;;;6.05;;
38130;SDS011;23947;51.894;4.622;2022-10-16T15:39:14;24.95;;;6.93;;
38130;SDS011;23947;51.894;4.622;2022-10-16T15:41:41;23.92;;;6.20;;
38130;SDS011;23947;51.894;4.622;2022-10-16T15:44:07;19.73;;;4.13;;
38130;SDS011;23947;51.894;4.622;2022-10-16T15:46:33;20.88;;;3.28;;
38130;SDS011;23947;51.894;4.622;2022-10-16T15:48:59;18.13;;;3.42;;
38130;SDS011;23947;51.894;4.622;2022-10-16T15:51:26;18.00;;;3.03;;
38130;SDS011;23947;51.894;4.622;2022-10-16T15:53:58;19.08;;;5.47;;
38130;SDS011;23947;51.894;4.622;2022-10-16T15:56:26;16.83;;;4.50;;
38130;SDS011;23947;51.894;4.622;2022-10-16T15:58:53;24.70;;;6.85;;
38130;SDS011;23947;51.894;4.622;2022-10-16T16:01:19;29.33;;;7.78;;
38130;SDS011;23947;51.894;4.622;2022-10-16T16:03:46;22.77;;;7.18;;
38130;SDS011;23947;51.894;4.622;2022-10-16T16:06:12;23.10;;;6.60;;
38130;SDS011;23947;51.894;4.622;2022-10-16T16:08:38;17.33;;;3.63;;
38130;SDS011;23947;51.894;4.622;2022-10-16T16:11:09;13.77;;;2.20;;
38130;SDS011;23947;51.894;4.622;2022-10-16T16:13:36;19.02;;;3.70;;
38130;SDS011;23947;51.894;4.622;2022-10-16T16:16:09;15.68;;;2.97;;
38130;SDS011;23947;51.894;4.622;2022-10-16T16:18:38;17.10;;;2.90;;
38130;SDS011;23947;51.894;4.622;2022-10-16T16:21:04;14.63;;;2.38;;
38130;SDS011;23947;51.894;4.622;2022-10-16T16:23:29;18.35;;;2.95;;
38130;SDS011;23947;51.894;4.622;2022-10-16T16:26:12;18.58;;;2.83;;
38130;SDS011;23947;51.894;4.622;2022-10-16T16:28:51;14.10;;;2.50;;
38130;SDS011;23947;51.894;4.622;2022-10-16T16:31:17;14.70;;;2.83;;
38130;SDS011;23947;51.894;4.622;2022-10-16T16:33:43;15.48;;;3.67;;
38130;SDS011;23947;51.894;4.622;2022-10-16T16:36:09;22.25;;;4.63;;
38130;SDS011;23947;51.894;4.622;2022-10-16T16:38:35;27.25;;;4.40;;
38130;SDS011;23947;51.894;4.622;2022-10-16T16:41:10;20.67;;;3.42;;
38130;SDS011;23947;51.894;4.622;2022-10-16T16:43:37;16.40;;;3.03;;
38130;SDS011;23947;51.894;4.622;2022-10-16T16:46:03;19.83;;;3.10;;
38130;SDS011;23947;51.894;4.622;2022-10-16T16:48:28;18.45;;;3.08;;
38130;SDS011;23947;51.894;4.622;2022-10-16T16:50:54;22.75;;;2.85;;
38130;SDS011;23947;51.894;4.622;2022-10-16T16:53:20;14.25;;;2.75;;
38130;SDS011;23947;51.894;4.622;2022-10-16T16:55:47;20.63;;;3.25;;
38130;SDS011;23947;51.894;4.622;2022-10-16T16:58:13;22.08;;;3.40;;
38130;SDS011;23947;51.894;4.622;2022-10-16T17:00:44;22.70;;;2.70;;
38130;SDS011;23947;51.894;4.622;2022-10-16T17:03:10;25.35;;;2.88;;
38130;SDS011;23947;51.894;4.622;2022-10-16T17:05:36;19.05;;;3.65;;
38130;SDS011;23947;51.894;4.622;2022-10-16T17:08:02;19.58;;;3.10;;
38130;SDS011;23947;51.894;4.622;2022-10-16T17:10:31;22.58;;;3.95;;
38130;SDS011;23947;51.894;4.622;2022-10-16T17:12:56;22.02;;;3.40;;
38130;SDS011;23947;51.894;4.622;2022-10-16T17:15:22;18.17;;;3.22;;
38130;SDS011;23947;51.894;4.622;2022-10-16T17:17:47;16.02;;;3.10;;
38130;SDS011;23947;51.894;4.622;2022-10-16T17:20:13;18.88;;;3.92;;